createdAt,value
2022-09-30T00:01:44.081Z,2.40
2022-09-30T00:04:15.195Z,2.30
2022-09-30T00:06:42.646Z,2.30
2022-09-30T00:09:11.923Z,2.43
2022-09-30T00:11:44.811Z,2.10
2022-09-30T00:14:16.468Z,2.50
2022-09-30T00:16:51.336Z,4.57
2022-09-30T00:19:20.805Z,2.60
2022-09-30T00:21:47.704Z,2.60
2022-09-30T00:24:14.728Z,2.67
2022-09-30T00:26:44.667Z,2.40
2022-09-30T00:29:12.170Z,2.13
2022-09-30T00:31:44.801Z,2.33
2022-09-30T00:34:12.156Z,2.47
2022-09-30T00:36:49.135Z,2.53
2022-09-30T00:39:29.547Z,2.20
2022-09-30T00:42:04.893Z,2.27
2022-09-30T00:44:57.263Z,2.43
2022-09-30T00:47:36.114Z,2.40
2022-09-30T00:50:32.537Z,2.37
2022-09-30T00:53:27.246Z,2.60
2022-09-30T00:56:06.628Z,2.70
2022-09-30T00:58:49.291Z,3.20
2022-09-30T01:01:19.232Z,2.90
2022-09-30T01:03:53.330Z,2.80
2022-09-30T01:06:24.820Z,2.80
2022-09-30T01:08:55.410Z,2.50
2022-09-30T01:11:34.875Z,2.87
2022-09-30T01:14:23.819Z,2.77
2022-09-30T01:17:08.103Z,2.67
2022-09-30T01:20:13.931Z,2.70
2022-09-30T01:23:11.899Z,2.50
2022-09-30T01:26:02.350Z,2.80
2022-09-30T01:29:08.121Z,2.60
2022-09-30T01:31:50.571Z,2.37
2022-09-30T01:34:26.574Z,2.80
2022-09-30T01:37:12.324Z,2.60
2022-09-30T01:39:58.193Z,2.73
2022-09-30T01:42:51.519Z,2.80
2022-09-30T01:45:24.926Z,2.73
2022-09-30T01:48:01.984Z,2.90
2022-09-30T01:50:54.515Z,3.37
2022-09-30T01:53:52.176Z,2.50
2022-09-30T01:56:28.233Z,2.87
2022-09-30T01:59:02.297Z,2.60
2022-09-30T02:01:36.778Z,2.70
2022-09-30T02:04:15.689Z,2.37
2022-09-30T02:06:51.645Z,2.80
2022-09-30T02:09:35.560Z,2.77
2022-09-30T02:12:08.799Z,2.63
2022-09-30T02:14:46.148Z,2.70
2022-09-30T02:17:23.447Z,2.43
2022-09-30T02:20:09.434Z,2.77
2022-09-30T02:22:44.814Z,2.80
2022-09-30T02:25:20.588Z,3.10
2022-09-30T02:27:55.977Z,2.63
2022-09-30T02:30:23.351Z,2.70
2022-09-30T02:32:53.025Z,2.70
2022-09-30T02:35:31.437Z,2.60
2022-09-30T02:38:05.678Z,2.27
2022-09-30T02:41:12.238Z,2.70
2022-09-30T02:43:44.736Z,2.40
2022-09-30T02:46:21.566Z,2.60
2022-09-30T02:49:22.840Z,2.40
2022-09-30T02:52:02.368Z,2.60
2022-09-30T02:54:51.436Z,2.43
2022-09-30T02:57:33.215Z,2.93
2022-09-30T03:00:03.244Z,2.50
2022-09-30T03:02:30.634Z,2.57
2022-09-30T03:04:57.511Z,2.50
2022-09-30T03:07:24.978Z,2.20
2022-09-30T03:09:59.977Z,2.73
2022-09-30T03:12:34.710Z,2.70
2022-09-30T03:15:25.052Z,2.77
2022-09-30T03:18:33.356Z,2.50
2022-09-30T03:21:09.662Z,2.10
2022-09-30T03:24:01.522Z,2.80
2022-09-30T03:27:04.356Z,2.73
2022-09-30T03:29:56.620Z,2.70
2022-09-30T03:32:49.450Z,2.90
2022-09-30T03:35:24.031Z,3.27
2022-09-30T03:38:24.099Z,2.80
2022-09-30T03:40:59.279Z,2.73
2022-09-30T03:43:50.750Z,2.50
2022-09-30T03:46:42.418Z,2.90
2022-09-30T03:49:17.073Z,2.53
2022-09-30T03:51:44.050Z,3.20
2022-09-30T03:54:20.493Z,3.20
2022-09-30T03:56:47.511Z,2.97
2022-09-30T03:59:25.111Z,3.50
2022-09-30T04:01:52.910Z,3.40
2022-09-30T04:04:23.226Z,3.63
2022-09-30T04:06:50.092Z,3.33
2022-09-30T04:09:17.713Z,3.47
2022-09-30T04:11:44.546Z,3.77
2022-09-30T04:14:14.645Z,4.23
2022-09-30T04:16:41.874Z,4.20
2022-09-30T04:19:08.624Z,4.27
2022-09-30T04:21:35.765Z,3.90
2022-09-30T04:24:02.955Z,4.37
2022-09-30T04:26:32.742Z,4.10
2022-09-30T04:29:06.074Z,3.80
2022-09-30T04:31:33.246Z,3.87
2022-09-30T04:34:00.061Z,4.20
2022-09-30T04:36:26.834Z,4.47
2022-09-30T04:38:56.883Z,4.87
2022-09-30T04:41:26.710Z,4.53
2022-09-30T04:43:53.489Z,4.60
2022-09-30T04:46:23.041Z,4.63
2022-09-30T04:48:50.221Z,4.40
2022-09-30T04:51:20.047Z,4.77
2022-09-30T04:53:47.807Z,4.90
2022-09-30T04:56:17.603Z,4.90
2022-09-30T04:58:48.236Z,5.23
2022-09-30T05:01:18.075Z,5.17
2022-09-30T05:03:45.379Z,4.33
2022-09-30T05:06:24.756Z,5.03
2022-09-30T05:08:51.928Z,6.13
2022-09-30T05:11:20.743Z,5.13
2022-09-30T05:13:51.086Z,5.20
2022-09-30T05:16:19.502Z,5.10
2022-09-30T05:18:47.299Z,5.57
2022-09-30T05:21:17.148Z,5.80
2022-09-30T05:23:44.365Z,6.73
2022-09-30T05:26:12.903Z,6.93
2022-09-30T05:28:43.719Z,6.43
2022-09-30T05:31:14.804Z,6.27
2022-09-30T05:33:42.017Z,6.50
2022-09-30T05:36:12.354Z,6.20
2022-09-30T05:38:42.722Z,8.17
2022-09-30T05:41:12.490Z,7.40
2022-09-30T05:43:47.794Z,7.87
2022-09-30T05:46:21.585Z,7.57
2022-09-30T05:48:48.333Z,7.77
2022-09-30T05:51:18.238Z,6.90
2022-09-30T05:53:44.938Z,6.17
2022-09-30T05:56:13.590Z,6.40
2022-09-30T05:58:42.441Z,6.87
2022-09-30T06:01:13.820Z,6.70
2022-09-30T06:03:48.628Z,6.10
2022-09-30T06:06:15.800Z,6.27
2022-09-30T06:08:44.025Z,6.27
2022-09-30T06:11:13.729Z,6.77
2022-09-30T06:13:42.591Z,6.90
2022-09-30T06:16:14.404Z,6.87
2022-09-30T06:18:41.845Z,6.33
2022-09-30T06:21:12.192Z,5.43
2022-09-30T06:23:43.211Z,5.40
2022-09-30T06:26:12.115Z,5.63
2022-09-30T06:28:39.382Z,5.60
2022-09-30T06:31:07.050Z,5.80
2022-09-30T06:33:37.405Z,5.97
2022-09-30T06:36:07.691Z,5.87
2022-09-30T06:38:39.371Z,5.93
2022-09-30T06:41:07.459Z,6.50
2022-09-30T06:43:41.303Z,6.40
2022-09-30T06:46:24.387Z,6.47
2022-09-30T06:49:09.259Z,6.40
2022-09-30T06:51:39.177Z,7.27
2022-09-30T06:54:08.546Z,6.93
2022-09-30T06:56:38.325Z,7.10
2022-09-30T06:59:05.581Z,6.57
2022-09-30T07:01:41.926Z,6.70
2022-09-30T07:04:15.376Z,6.40
2022-09-30T07:06:42.405Z,6.40
2022-09-30T07:09:11.331Z,6.40
2022-09-30T07:11:39.570Z,5.67
2022-09-30T07:14:07.357Z,5.63
2022-09-30T07:16:36.772Z,5.80
2022-09-30T07:19:05.263Z,5.10
2022-09-30T07:21:34.672Z,5.30
2022-09-30T07:24:01.681Z,5.10
2022-09-30T07:26:31.146Z,5.37
2022-09-30T07:29:00.021Z,4.97
2022-09-30T07:31:35.558Z,5.50
2022-09-30T07:34:07.178Z,5.60
2022-09-30T07:36:36.151Z,5.37
2022-09-30T07:39:06.852Z,5.83
2022-09-30T07:41:36.913Z,5.70
2022-09-30T07:44:06.320Z,6.10
2022-09-30T07:46:34.816Z,6.63
2022-09-30T07:49:04.731Z,4.87
2022-09-30T07:51:35.145Z,5.40
2022-09-30T07:54:06.583Z,5.13
2022-09-30T07:57:05.187Z,4.63
2022-09-30T07:59:27.756Z,4.63
2022-09-30T08:01:54.931Z,4.07
2022-09-30T08:04:23.195Z,4.13
2022-09-30T08:06:55.974Z,2.87
2022-09-30T08:09:25.637Z,2.70
2022-09-30T08:11:53.101Z,2.50
2022-09-30T08:14:28.216Z,2.83
2022-09-30T08:16:57.049Z,2.70
2022-09-30T08:19:25.093Z,2.30
2022-09-30T08:21:55.719Z,2.37
2022-09-30T08:24:24.073Z,2.43
2022-09-30T08:26:51.902Z,2.67
2022-09-30T08:29:42.572Z,2.40
2022-09-30T08:32:09.034Z,2.10
2022-09-30T08:34:36.157Z,1.93
2022-09-30T08:37:11.068Z,2.17
2022-09-30T08:39:38.705Z,2.23
2022-09-30T08:42:37.996Z,1.90
2022-09-30T08:45:34.190Z,2.00
2022-09-30T08:51:21.628Z,1.90
2022-09-30T08:53:48.996Z,1.97
2022-09-30T08:56:33.583Z,1.97
2022-09-30T08:59:26.768Z,1.60
2022-09-30T09:02:21.781Z,1.80
2022-09-30T09:04:59.456Z,1.83
2022-09-30T09:08:07.486Z,1.80
2022-09-30T09:11:10.906Z,2.07
2022-09-30T09:14:17.499Z,1.70
2022-09-30T09:17:18.567Z,1.63
2022-09-30T09:20:14.708Z,1.80
2022-09-30T09:22:46.544Z,1.70
2022-09-30T09:25:20.127Z,1.50
2022-09-30T09:27:54.759Z,1.80
2022-09-30T09:30:24.441Z,1.40
2022-09-30T09:33:07.338Z,1.70
2022-09-30T09:35:48.214Z,1.60
2022-09-30T09:38:35.989Z,1.60
2022-09-30T09:41:30.708Z,1.60
2022-09-30T09:44:01.049Z,1.67
2022-09-30T09:46:46.643Z,1.70
2022-09-30T09:52:13.624Z,1.53
2022-09-30T09:54:43.826Z,1.93
2022-09-30T09:57:14.975Z,1.60
2022-09-30T10:00:21.696Z,1.60
2022-09-30T10:03:21.174Z,1.50
2022-09-30T10:06:00.632Z,1.60
2022-09-30T10:08:29.118Z,1.30
2022-09-30T10:11:03.369Z,1.50
2022-09-30T10:13:44.058Z,1.67
2022-09-30T10:16:38.089Z,1.40
2022-09-30T10:19:21.059Z,1.73
2022-09-30T10:21:48.085Z,1.70
2022-09-30T10:24:30.982Z,1.60
2022-09-30T10:26:58.418Z,1.60
2022-09-30T10:29:36.032Z,1.90
2022-09-30T10:32:09.017Z,1.70
2022-09-30T10:34:40.182Z,2.00
2022-09-30T10:37:25.331Z,1.93
2022-09-30T10:40:02.832Z,1.83
2022-09-30T10:42:33.071Z,2.07
2022-09-30T10:45:18.254Z,2.10
2022-09-30T10:47:48.719Z,1.90
2022-09-30T10:50:25.153Z,2.00
2022-09-30T10:53:03.449Z,2.20
2022-09-30T10:55:36.134Z,1.70
2022-09-30T10:58:21.814Z,2.07
2022-09-30T11:00:53.925Z,2.00
2022-09-30T11:04:04.912Z,1.70
2022-09-30T11:06:33.552Z,1.80
2022-09-30T11:09:13.197Z,1.90
2022-09-30T11:11:58.989Z,1.87
2022-09-30T11:14:33.022Z,1.90
2022-09-30T11:17:29.504Z,1.97
2022-09-30T11:20:17.548Z,1.80
2022-09-30T11:23:07.976Z,2.00
2022-09-30T11:25:53.599Z,2.10
2022-09-30T11:28:55.777Z,1.93
2022-09-30T11:31:39.549Z,1.80
2022-09-30T11:34:37.744Z,1.90
2022-09-30T11:37:24.695Z,1.70
2022-09-30T11:40:11.229Z,1.80
2022-09-30T11:43:08.426Z,1.60
2022-09-30T11:45:57.653Z,1.50
2022-09-30T11:49:02.183Z,1.70
2022-09-30T11:52:06.121Z,1.60
2022-09-30T11:54:46.636Z,1.70
2022-09-30T11:57:42.342Z,1.93
2022-09-30T12:00:12.256Z,1.67
2022-09-30T12:02:46.922Z,1.50
2022-09-30T12:05:24.945Z,1.60
2022-09-30T12:08:14.269Z,1.60
2022-09-30T12:10:49.721Z,1.53
2022-09-30T12:13:54.593Z,1.87
2022-09-30T12:16:25.524Z,1.60
2022-09-30T12:19:02.938Z,1.50
2022-09-30T12:21:55.856Z,2.00
2022-09-30T12:24:43.153Z,1.63
2022-09-30T12:27:40.006Z,1.40
2022-09-30T12:30:19.139Z,1.40
2022-09-30T12:32:54.677Z,1.40
2022-09-30T12:35:58.462Z,1.90
2022-09-30T12:38:56.441Z,1.50
2022-09-30T12:41:46.764Z,1.53
2022-09-30T12:44:56.769Z,1.60
2022-09-30T12:47:45.742Z,1.50
2022-09-30T12:50:22.725Z,1.50
2022-09-30T12:52:52.747Z,1.37
2022-09-30T12:55:33.018Z,1.70
2022-09-30T12:58:03.109Z,1.97
2022-09-30T13:00:37.045Z,1.50
2022-09-30T13:03:24.899Z,1.50
2022-09-30T13:06:09.072Z,1.50
2022-09-30T13:08:45.333Z,1.70
2022-09-30T13:11:40.486Z,1.60
2022-09-30T13:14:29.730Z,1.47
2022-09-30T13:17:09.100Z,1.30
2022-09-30T13:19:44.547Z,1.70
2022-09-30T13:22:30.031Z,1.50
2022-09-30T13:25:05.940Z,1.50
2022-09-30T13:27:39.368Z,1.60
2022-09-30T13:30:18.576Z,1.40
2022-09-30T13:32:57.510Z,1.70
2022-09-30T13:35:54.792Z,1.63
2022-09-30T13:38:33.320Z,1.60
2022-09-30T13:41:14.199Z,1.40
2022-09-30T13:43:52.755Z,1.40
2022-09-30T13:46:27.114Z,1.30
2022-09-30T13:49:19.548Z,1.37
2022-09-30T13:51:46.883Z,1.57
2022-09-30T13:54:40.287Z,1.30
2022-09-30T13:57:10.042Z,1.20
2022-09-30T14:00:05.228Z,1.50
2022-09-30T14:03:06.797Z,3.20
2022-09-30T14:06:00.145Z,3.47
2022-09-30T14:08:58.100Z,2.40
2022-09-30T14:12:12.336Z,1.60
2022-09-30T14:15:04.159Z,16.17
2022-09-30T14:17:56.866Z,2.37
2022-09-30T14:20:30.602Z,1.60
2022-09-30T14:22:57.631Z,1.50
2022-09-30T14:25:24.773Z,1.40
2022-09-30T14:28:16.286Z,1.80
2022-09-30T14:31:03.789Z,1.60
2022-09-30T14:33:31.927Z,2.00
2022-09-30T14:36:09.168Z,3.30
2022-09-30T14:38:36.874Z,4.40
2022-09-30T14:41:10.700Z,3.30
2022-09-30T14:43:43.206Z,2.03
2022-09-30T14:46:19.151Z,1.97
2022-09-30T14:48:48.785Z,2.57
2022-09-30T14:51:22.847Z,14.47
2022-09-30T14:54:03.798Z,9.67
2022-09-30T14:56:36.495Z,6.03
2022-09-30T14:59:33.252Z,1.90
2022-09-30T15:02:20.412Z,2.27
2022-09-30T15:05:00.402Z,2.40
2022-09-30T15:07:28.320Z,1.77
2022-09-30T15:10:02.396Z,1.70
2022-09-30T15:12:32.632Z,1.80
2022-09-30T15:15:00.332Z,1.80
2022-09-30T15:17:30.020Z,1.80
2022-09-30T15:20:01.009Z,1.90
2022-09-30T15:22:30.218Z,2.20
2022-09-30T15:24:58.218Z,2.33
2022-09-30T15:27:30.757Z,2.03
2022-09-30T15:30:02.963Z,2.10
2022-09-30T15:32:33.858Z,2.07
2022-09-30T15:35:13.256Z,2.00
2022-09-30T15:37:40.185Z,1.90
2022-09-30T15:40:37.577Z,1.90
2022-09-30T15:43:14.725Z,2.10
2022-09-30T15:45:44.049Z,1.90
2022-09-30T15:48:26.111Z,2.70
2022-09-30T15:50:55.942Z,2.70
2022-09-30T15:53:25.679Z,3.77
2022-09-30T15:56:31.136Z,4.50
2022-09-30T15:59:11.082Z,3.47
2022-09-30T16:01:49.561Z,2.80
2022-09-30T16:04:16.155Z,2.80
2022-09-30T16:06:48.874Z,3.43
2022-09-30T16:09:23.749Z,5.97
2022-09-30T16:12:12.279Z,8.30
2022-09-30T16:14:54.491Z,13.33
2022-09-30T16:17:35.513Z,12.30
2022-09-30T16:20:14.909Z,12.50
2022-09-30T16:22:41.555Z,9.57
2022-09-30T16:25:33.863Z,3.40
2022-09-30T16:28:14.982Z,2.87
2022-09-30T16:30:44.664Z,2.90
2022-09-30T16:33:13.262Z,3.20
2022-09-30T16:35:44.737Z,4.23
2022-09-30T16:38:19.292Z,4.27
2022-09-30T16:40:46.315Z,4.07
2022-09-30T16:43:21.774Z,4.77
2022-09-30T16:45:48.754Z,7.20
2022-09-30T16:48:17.005Z,9.03
2022-09-30T16:50:54.473Z,7.50
2022-09-30T16:53:21.956Z,7.10
2022-09-30T16:55:48.671Z,6.07
2022-09-30T16:58:21.768Z,5.53
2022-09-30T17:00:48.884Z,6.40
2022-09-30T17:03:18.349Z,6.40
2022-09-30T17:05:52.003Z,7.00
2022-09-30T17:08:25.582Z,9.73
2022-09-30T17:10:52.678Z,10.80
2022-09-30T17:13:22.591Z,6.70
2022-09-30T17:15:52.558Z,5.67
2022-09-30T17:18:19.811Z,6.03
2022-09-30T17:20:55.199Z,7.17
2022-09-30T17:23:24.186Z,7.60
2022-09-30T17:25:55.047Z,8.50
2022-09-30T17:28:22.889Z,8.13
2022-09-30T17:30:50.461Z,8.10
2022-09-30T17:33:24.203Z,8.10
2022-09-30T17:36:02.301Z,7.33
2022-09-30T17:38:29.881Z,8.07
2022-09-30T17:41:15.539Z,8.00
2022-09-30T17:43:42.705Z,6.60
2022-09-30T17:46:09.632Z,5.50
2022-09-30T17:48:38.124Z,5.40
2022-09-30T17:51:06.284Z,5.20
2022-09-30T17:53:33.005Z,4.97
2022-09-30T17:56:10.552Z,6.73
2022-09-30T17:58:37.277Z,6.63
2022-09-30T18:01:08.367Z,6.83
2022-09-30T18:03:35.772Z,6.07
2022-09-30T18:06:03.446Z,6.40
2022-09-30T18:08:30.441Z,6.50
2022-09-30T18:10:57.415Z,7.97
2022-09-30T18:13:28.119Z,7.83
2022-09-30T18:15:59.650Z,8.00
2022-09-30T18:18:26.432Z,10.17
2022-09-30T18:20:53.097Z,12.23
2022-09-30T18:23:19.841Z,9.17
2022-09-30T18:25:51.954Z,9.90
2022-09-30T18:28:18.884Z,8.43
2022-09-30T18:30:46.605Z,8.73
2022-09-30T18:33:17.211Z,11.43
2022-09-30T18:35:44.014Z,8.07
2022-09-30T18:38:12.754Z,8.60
2022-09-30T18:40:43.122Z,8.67
2022-09-30T18:43:13.582Z,8.47
2022-09-30T18:45:40.963Z,7.73
2022-09-30T18:48:08.850Z,9.00
2022-09-30T18:50:35.824Z,7.80
2022-09-30T18:53:09.421Z,8.03
2022-09-30T18:55:44.273Z,8.50
2022-09-30T18:58:11.077Z,7.97
2022-09-30T19:00:38.346Z,8.53
2022-09-30T19:03:05.128Z,9.20
2022-09-30T19:05:32.113Z,9.80
2022-09-30T19:08:01.642Z,9.47
2022-09-30T19:10:31.059Z,8.80
2022-09-30T19:12:57.800Z,8.77
2022-09-30T19:15:24.849Z,9.13
2022-09-30T19:17:55.388Z,8.13
2022-09-30T19:20:23.278Z,7.50
2022-09-30T19:22:53.194Z,7.03
2022-09-30T19:25:22.604Z,6.43
2022-09-30T19:27:49.986Z,4.60
2022-09-30T19:30:16.831Z,6.97
2022-09-30T19:32:43.815Z,6.93
2022-09-30T19:35:17.110Z,8.07
2022-09-30T19:38:02.139Z,8.43
2022-09-30T19:43:00.465Z,12.33
2022-09-30T19:45:31.384Z,11.10
2022-09-30T19:47:59.569Z,10.53
2022-09-30T19:50:27.231Z,10.53
2022-09-30T19:52:57.687Z,9.63
2022-09-30T19:55:25.628Z,8.93
2022-09-30T19:57:52.677Z,7.90
2022-09-30T20:00:22.529Z,7.43
2022-09-30T20:02:53.379Z,7.97
2022-09-30T20:05:20.915Z,7.87
2022-09-30T20:07:51.065Z,7.47
2022-09-30T20:10:21.740Z,8.03
2022-09-30T20:12:52.700Z,7.37
2022-09-30T20:15:40.432Z,6.93
2022-09-30T20:18:11.671Z,7.33
2022-09-30T20:20:42.916Z,6.80
2022-09-30T20:23:09.679Z,7.30
2022-09-30T20:25:38.355Z,6.90
2022-09-30T20:28:08.226Z,7.40
2022-09-30T20:30:39.612Z,6.83
2022-09-30T20:33:06.415Z,6.47
2022-09-30T20:35:37.035Z,6.90
2022-09-30T20:38:03.911Z,6.30
2022-09-30T20:40:30.640Z,6.30
2022-09-30T20:43:01.892Z,6.00
2022-09-30T20:45:28.833Z,6.00
2022-09-30T20:48:03.894Z,5.57
2022-09-30T20:50:36.489Z,6.60
2022-09-30T20:53:12.148Z,5.93
2022-09-30T20:55:41.294Z,5.47
2022-09-30T20:58:08.621Z,5.57
2022-09-30T21:00:39.763Z,6.13
2022-09-30T21:03:12.474Z,5.03
2022-09-30T21:05:39.440Z,5.60
2022-09-30T21:08:09.261Z,5.90
2022-09-30T21:10:37.313Z,5.40
2022-09-30T21:13:10.838Z,5.23
2022-09-30T21:15:40.620Z,5.07
2022-09-30T21:18:07.910Z,5.37
2022-09-30T21:20:35.431Z,4.73
2022-09-30T21:23:03.663Z,5.23
2022-09-30T21:25:33.956Z,4.70
2022-09-30T21:28:03.391Z,4.90
2022-09-30T21:30:40.581Z,4.43
2022-09-30T21:33:09.820Z,4.87
2022-09-30T21:35:36.649Z,5.00
2022-09-30T21:38:03.588Z,4.23
2022-09-30T21:40:30.397Z,4.20
2022-09-30T21:42:58.649Z,5.00
2022-09-30T21:45:28.783Z,4.80
2022-09-30T21:48:03.292Z,4.63
2022-09-30T21:50:32.436Z,4.83
2022-09-30T21:52:59.931Z,4.80
2022-09-30T21:55:27.716Z,4.80
2022-09-30T21:57:55.524Z,4.80
2022-09-30T22:00:22.462Z,4.47
2022-09-30T22:02:49.217Z,4.53
2022-09-30T22:05:20.733Z,5.03
2022-09-30T22:07:48.144Z,5.40
2022-09-30T22:10:23.252Z,4.67
2022-09-30T22:12:51.130Z,5.00
2022-09-30T22:15:19.081Z,5.13
2022-09-30T22:17:51.468Z,5.53
2022-09-30T22:20:22.204Z,4.97
2022-09-30T22:22:49.078Z,5.30
2022-09-30T22:25:16.366Z,5.30
2022-09-30T22:27:43.341Z,5.20
2022-09-30T22:30:13.249Z,5.53
2022-09-30T22:32:39.962Z,4.70
2022-09-30T22:35:26.052Z,4.80
2022-09-30T22:38:11.334Z,5.30
2022-09-30T22:40:38.384Z,5.13
2022-09-30T22:43:08.207Z,4.43
2022-09-30T22:45:38.191Z,5.00
2022-09-30T22:48:07.124Z,4.90
2022-09-30T22:50:44.664Z,4.83
2022-09-30T22:53:11.413Z,4.70
2022-09-30T22:55:38.540Z,4.60
2022-09-30T22:58:05.265Z,4.50
2022-09-30T23:00:31.943Z,4.77
2022-09-30T23:02:58.790Z,4.70
2022-09-30T23:05:25.969Z,4.73
2022-09-30T23:07:56.049Z,4.53
2022-09-30T23:10:22.759Z,4.60
2022-09-30T23:12:59.073Z,4.83
2022-09-30T23:15:26.131Z,4.70
2022-09-30T23:17:52.782Z,4.47
2022-09-30T23:20:19.887Z,4.77
2022-09-30T23:22:47.446Z,4.40
2022-09-30T23:25:17.209Z,4.87
2022-09-30T23:27:49.086Z,5.10
2022-09-30T23:30:16.048Z,5.10
2022-09-30T23:32:42.746Z,6.13
2022-09-30T23:35:09.820Z,5.40
2022-09-30T23:37:39.239Z,4.23
2022-09-30T23:40:15.410Z,4.47
2022-09-30T23:42:42.388Z,4.20
2022-09-30T23:45:09.478Z,4.23
2022-09-30T23:47:39.250Z,4.50
2022-09-30T23:50:06.678Z,3.50
2022-09-30T23:52:33.335Z,4.40
2022-09-30T23:55:00.036Z,4.20
2022-09-30T23:57:27.120Z,4.43
2022-09-30T23:59:56.095Z,4.50
